sensor_id;sensor_type;location;lat;lon;timestamp;pressure;altitude;pressure_sealevel;temperature;humidity
61039;BME280;46919;45.816;3.104;2022-11-06T00:00:06;98115.56;;;2.69;100.00
61039;BME280;46919;45.816;3.104;2022-11-06T00:02:31;98113.88;;;2.68;100.00
61039;BME280;46919;45.816;3.104;2022-11-06T00:04:57;98111.75;;;2.47;100.00
61039;BME280;46919;45.816;3.104;2022-11-06T00:07:47;98107.41;;;2.38;100.00
61039;BME280;46919;45.816;3.104;2022-11-06T00:10:14;98101.09;;;2.30;100.00
61039;BME280;46919;45.816;3.104;2022-11-06T00:12:40;98087.59;;;2.32;100.00
61039;BME280;46919;45.816;3.104;2022-11-06T00:15:06;98097.75;;;2.28;100.00
61039;BME280;46919;45.816;3.104;2022-11-06T00:17:32;98103.75;;;2.22;100.00
61039;BME280;46919;45.816;3.104;2022-11-06T00:19:57;98091.75;;;2.26;100.00
61039;BME280;46919;45.816;3.104;2022-11-06T00:22:22;98092.94;;;2.32;100.00
61039;BME280;46919;45.816;3.104;2022-11-06T00:24:48;98098.09;;;2.25;100.00
61039;BME280;46919;45.816;3.104;2022-11-06T00:27:14;98096.25;;;2.34;100.00
61039;BME280;46919;45.816;3.104;2022-11-06T00:29:39;98105.25;;;2.33;100.00
61039;BME280;46919;45.816;3.104;2022-11-06T00:32:05;98104.09;;;2.27;100.00
61039;BME280;46919;45.816;3.104;2022-11-06T00:34:31;98104.09;;;2.35;100.00
61039;BME280;46919;45.816;3.104;2022-11-06T00:36:56;98082.91;;;2.59;100.00
61039;BME280;46919;45.816;3.104;2022-11-06T00:39:21;98071.81;;;2.86;100.00
61039;BME280;46919;45.816;3.104;2022-11-06T00:41:47;98063.28;;;2.99;100.00
61039;BME280;46919;45.816;3.104;2022-11-06T00:44:12;98064.00;;;2.77;100.00
61039;BME280;46919;45.816;3.104;2022-11-06T00:46:38;98065.06;;;2.51;100.00
61039;BME280;46919;45.816;3.104;2022-11-06T00:49:03;98069.72;;;2.41;100.00
61039;BME280;46919;45.816;3.104;2022-11-06T00:51:33;98072.75;;;2.38;100.00
61039;BME280;46919;45.816;3.104;2022-11-06T00:54:02;98080.72;;;2.38;100.00
61039;BME280;46919;45.816;3.104;2022-11-06T00:56:28;98059.41;;;2.38;100.00
61039;BME280;46919;45.816;3.104;2022-11-06T00:58:57;98053.88;;;2.64;100.00
61039;BME280;46919;45.816;3.104;2022-11-06T01:01:28;98046.66;;;2.81;100.00
61039;BME280;46919;45.816;3.104;2022-11-06T01:03:59;98047.00;;;2.69;100.00
61039;BME280;46919;45.816;3.104;2022-11-06T01:06:28;98049.41;;;2.48;100.00
61039;BME280;46919;45.816;3.104;2022-11-06T01:08:53;98044.06;;;2.31;100.00
61039;BME280;46919;45.816;3.104;2022-11-06T01:11:21;98056.59;;;2.23;100.00
61039;BME280;46919;45.816;3.104;2022-11-06T01:13:50;98049.75;;;2.20;100.00
61039;BME280;46919;45.816;3.104;2022-11-06T01:16:17;98050.44;;;2.22;100.00
61039;BME280;46919;45.816;3.104;2022-11-06T01:18:43;98050.75;;;2.19;100.00
61039;BME280;46919;45.816;3.104;2022-11-06T01:21:14;98054.06;;;2.29;100.00
61039;BME280;46919;45.816;3.104;2022-11-06T01:23:41;98058.09;;;2.25;100.00
61039;BME280;46919;45.816;3.104;2022-11-06T01:26:07;98051.75;;;2.18;100.00
61039;BME280;46919;45.816;3.104;2022-11-06T01:28:34;98044.25;;;2.13;100.00
61039;BME280;46919;45.816;3.104;2022-11-06T01:31:13;98039.91;;;2.12;100.00
61039;BME280;46919;45.816;3.104;2022-11-06T01:33:39;98041.06;;;2.26;100.00
61039;BME280;46919;45.816;3.104;2022-11-06T01:36:10;98034.09;;;2.25;100.00
61039;BME280;46919;45.816;3.104;2022-11-06T01:38:39;98038.75;;;2.15;100.00
61039;BME280;46919;45.816;3.104;2022-11-06T01:41:04;98030.28;;;2.11;100.00
61039;BME280;46919;45.816;3.104;2022-11-06T01:46:18;98036.41;;;2.37;100.00
61039;BME280;46919;45.816;3.104;2022-11-06T01:48:58;98043.72;;;2.34;100.00
61039;BME280;46919;45.816;3.104;2022-11-06T01:51:27;98048.41;;;2.32;100.00
61039;BME280;46919;45.816;3.104;2022-11-06T01:53:54;98055.06;;;2.28;100.00
61039;BME280;46919;45.816;3.104;2022-11-06T01:56:20;98051.41;;;2.29;100.00
61039;BME280;46919;45.816;3.104;2022-11-06T01:58:50;98050.75;;;2.27;100.00
61039;BME280;46919;45.816;3.104;2022-11-06T02:01:16;98065.72;;;2.28;100.00
61039;BME280;46919;45.816;3.104;2022-11-06T02:04:11;98067.41;;;2.21;100.00
61039;BME280;46919;45.816;3.104;2022-11-06T02:06:35;98072.75;;;2.13;100.00
61039;BME280;46919;45.816;3.104;2022-11-06T02:09:02;98047.75;;;2.14;100.00
61039;BME280;46919;45.816;3.104;2022-11-06T02:11:42;98033.09;;;2.18;100.00
61039;BME280;46919;45.816;3.104;2022-11-06T02:14:18;98038.75;;;2.15;100.00
61039;BME280;46919;45.816;3.104;2022-11-06T02:22:20;98046.09;;;2.05;100.00
61039;BME280;46919;45.816;3.104;2022-11-06T02:27:26;98028.44;;;1.95;100.00
61039;BME280;46919;45.816;3.104;2022-11-06T02:30:09;98030.09;;;1.96;100.00
61039;BME280;46919;45.816;3.104;2022-11-06T02:32:49;98010.13;;;1.92;100.00
61039;BME280;46919;45.816;3.104;2022-11-06T02:38:15;97994.59;;;2.04;100.00
61039;BME280;46919;45.816;3.104;2022-11-06T02:40:46;97998.75;;;1.90;100.00
61039;BME280;46919;45.816;3.104;2022-11-06T02:43:14;97988.63;;;1.94;100.00
61039;BME280;46919;45.816;3.104;2022-11-06T02:45:47;97990.13;;;2.05;100.00
61039;BME280;46919;45.816;3.104;2022-11-06T02:48:19;97970.94;;;2.09;100.00
61039;BME280;46919;45.816;3.104;2022-11-06T02:50:47;97958.63;;;2.08;100.00
61039;BME280;46919;45.816;3.104;2022-11-06T02:53:17;97954.47;;;1.97;100.00
61039;BME280;46919;45.816;3.104;2022-11-06T02:55:47;97957.59;;;2.09;100.00
61039;BME280;46919;45.816;3.104;2022-11-06T02:58:51;97958.13;;;1.96;100.00
61039;BME280;46919;45.816;3.104;2022-11-06T03:01:27;97960.97;;;1.87;100.00
61039;BME280;46919;45.816;3.104;2022-11-06T03:03:59;97958.13;;;1.88;100.00
61039;BME280;46919;45.816;3.104;2022-11-06T03:06:44;97955.47;;;1.80;100.00
61039;BME280;46919;45.816;3.104;2022-11-06T03:09:17;97950.47;;;1.77;100.00
61039;BME280;46919;45.816;3.104;2022-11-06T03:11:44;97948.47;;;1.79;100.00
61039;BME280;46919;45.816;3.104;2022-11-06T03:14:34;97939.84;;;1.69;100.00
61039;BME280;46919;45.816;3.104;2022-11-06T03:17:22;97926.84;;;1.66;100.00
61039;BME280;46919;45.816;3.104;2022-11-06T03:20:12;97920.00;;;1.71;100.00
61039;BME280;46919;45.816;3.104;2022-11-06T03:25:15;97905.16;;;2.02;100.00
61039;BME280;46919;45.816;3.104;2022-11-06T03:27:57;97900.16;;;1.82;100.00
61039;BME280;46919;45.816;3.104;2022-11-06T03:30:25;97896.53;;;1.67;100.00
61039;BME280;46919;45.816;3.104;2022-11-06T03:35:32;97878.56;;;1.44;100.00
61039;BME280;46919;45.816;3.104;2022-11-06T03:38:22;97888.56;;;1.42;100.00
61039;BME280;46919;45.816;3.104;2022-11-06T03:40:52;97875.72;;;1.37;100.00
61039;BME280;46919;45.816;3.104;2022-11-06T03:43:22;97874.22;;;1.35;100.00
61039;BME280;46919;45.816;3.104;2022-11-06T03:45:50;97878.72;;;1.34;100.00
61039;BME280;46919;45.816;3.104;2022-11-06T03:48:32;97877.59;;;1.29;100.00
61039;BME280;46919;45.816;3.104;2022-11-06T03:53:30;97875.75;;;1.29;100.00
61039;BME280;46919;45.816;3.104;2022-11-06T03:56:13;97865.22;;;1.52;100.00
61039;BME280;46919;45.816;3.104;2022-11-06T03:58:43;97864.72;;;1.73;100.00
61039;BME280;46919;45.816;3.104;2022-11-06T04:01:11;97855.69;;;1.91;100.00
61039;BME280;46919;45.816;3.104;2022-11-06T04:03:50;97860.69;;;1.94;100.00
61039;BME280;46919;45.816;3.104;2022-11-06T04:06:21;97852.22;;;1.74;100.00
61039;BME280;46919;45.816;3.104;2022-11-06T04:08:51;97857.44;;;1.59;100.00
61039;BME280;46919;45.816;3.104;2022-11-06T04:11:37;97846.09;;;1.49;100.00
61039;BME280;46919;45.816;3.104;2022-11-06T04:14:25;97840.78;;;1.49;100.00
61039;BME280;46919;45.816;3.104;2022-11-06T04:16:55;97825.66;;;1.49;100.00
61039;BME280;46919;45.816;3.104;2022-11-06T04:19:22;97820.31;;;1.49;100.00
61039;BME280;46919;45.816;3.104;2022-11-06T04:22:04;97824.97;;;1.47;100.00
61039;BME280;46919;45.816;3.104;2022-11-06T04:44:06;97793.69;;;1.49;100.00
61039;BME280;46919;45.816;3.104;2022-11-06T04:46:38;97788.69;;;1.46;100.00
61039;BME280;46919;45.816;3.104;2022-11-06T04:49:06;97789.38;;;1.40;100.00
61039;BME280;46919;45.816;3.104;2022-11-06T04:51:35;97789.03;;;1.35;100.00
61039;BME280;46919;45.816;3.104;2022-11-06T04:54:03;97783.03;;;1.33;100.00
61039;BME280;46919;45.816;3.104;2022-11-06T04:56:33;97780.72;;;1.30;100.00
61039;BME280;46919;45.816;3.104;2022-11-06T04:58:59;97771.91;;;1.29;100.00
61039;BME280;46919;45.816;3.104;2022-11-06T05:01:25;97773.91;;;1.27;100.00
61039;BME280;46919;45.816;3.104;2022-11-06T05:03:50;97763.19;;;1.52;100.00
61039;BME280;46919;45.816;3.104;2022-11-06T05:06:16;97758.63;;;1.77;100.00
61039;BME280;46919;45.816;3.104;2022-11-06T05:08:42;97757.97;;;1.75;100.00
61039;BME280;46919;45.816;3.104;2022-11-06T05:11:07;97770.03;;;1.54;100.00
61039;BME280;46919;45.816;3.104;2022-11-06T05:13:32;97768.56;;;1.35;100.00
61039;BME280;46919;45.816;3.104;2022-11-06T05:15:58;97769.41;;;1.27;100.00
61039;BME280;46919;45.816;3.104;2022-11-06T05:18:25;97766.56;;;1.29;100.00
61039;BME280;46919;45.816;3.104;2022-11-06T05:20:51;97760.44;;;1.29;100.00
61039;BME280;46919;45.816;3.104;2022-11-06T05:23:36;97752.59;;;1.35;100.00
61039;BME280;46919;45.816;3.104;2022-11-06T05:26:03;97756.19;;;1.51;100.00
61039;BME280;46919;45.816;3.104;2022-11-06T05:28:29;97748.41;;;1.49;100.00
61039;BME280;46919;45.816;3.104;2022-11-06T05:30:54;97753.19;;;1.62;100.00
61039;BME280;46919;45.816;3.104;2022-11-06T05:33:20;97749.00;;;1.68;100.00
61039;BME280;46919;45.816;3.104;2022-11-06T05:35:45;97749.84;;;1.60;100.00
61039;BME280;46919;45.816;3.104;2022-11-06T05:38:10;97742.06;;;1.50;100.00
61039;BME280;46919;45.816;3.104;2022-11-06T05:40:36;97739.53;;;1.57;100.00
61039;BME280;46919;45.816;3.104;2022-11-06T05:43:02;97724.00;;;1.77;100.00
61039;BME280;46919;45.816;3.104;2022-11-06T05:45:27;97727.81;;;1.83;100.00
61039;BME280;46919;45.816;3.104;2022-11-06T05:47:53;97726.03;;;1.67;100.00
61039;BME280;46919;45.816;3.104;2022-11-06T05:50:18;97722.72;;;1.56;100.00
61039;BME280;46919;45.816;3.104;2022-11-06T05:52:43;97722.44;;;1.51;100.00
61039;BME280;46919;45.816;3.104;2022-11-06T05:55:09;97713.09;;;1.47;100.00
61039;BME280;46919;45.816;3.104;2022-11-06T05:57:34;97711.97;;;1.41;100.00
61039;BME280;46919;45.816;3.104;2022-11-06T06:00:00;97705.31;;;1.37;100.00
61039;BME280;46919;45.816;3.104;2022-11-06T06:02:26;97711.81;;;1.35;100.00
61039;BME280;46919;45.816;3.104;2022-11-06T06:04:51;97710.50;;;1.31;100.00
61039;BME280;46919;45.816;3.104;2022-11-06T06:07:16;97707.19;;;1.29;100.00
61039;BME280;46919;45.816;3.104;2022-11-06T06:09:42;97714.31;;;1.28;100.00
61039;BME280;46919;45.816;3.104;2022-11-06T06:12:10;97716.16;;;1.27;100.00
61039;BME280;46919;45.816;3.104;2022-11-06T06:14:36;97707.53;;;1.25;100.00
61039;BME280;46919;45.816;3.104;2022-11-06T06:17:02;97705.34;;;1.29;100.00
61039;BME280;46919;45.816;3.104;2022-11-06T06:19:27;97705.00;;;1.32;100.00
61039;BME280;46919;45.816;3.104;2022-11-06T06:21:52;97705.16;;;1.39;100.00
61039;BME280;46919;45.816;3.104;2022-11-06T06:24:18;97685.69;;;1.38;100.00
61039;BME280;46919;45.816;3.104;2022-11-06T06:26:43;97684.13;;;1.52;100.00
61039;BME280;46919;45.816;3.104;2022-11-06T06:29:09;97677.41;;;1.65;100.00
61039;BME280;46919;45.816;3.104;2022-11-06T06:31:34;97678.44;;;1.63;100.00
61039;BME280;46919;45.816;3.104;2022-11-06T06:33:59;97672.78;;;1.58;100.00
61039;BME280;46919;45.816;3.104;2022-11-06T06:36:25;97676.00;;;1.45;100.00
61039;BME280;46919;45.816;3.104;2022-11-06T06:38:50;97669.03;;;1.44;100.00
61039;BME280;46919;45.816;3.104;2022-11-06T06:41:15;97670.44;;;1.63;100.00
61039;BME280;46919;45.816;3.104;2022-11-06T06:43:41;97666.03;;;1.79;100.00
61039;BME280;46919;45.816;3.104;2022-11-06T06:46:07;97668.72;;;1.71;100.00
61039;BME280;46919;45.816;3.104;2022-11-06T06:48:33;97663.97;;;1.58;100.00
61039;BME280;46919;45.816;3.104;2022-11-06T06:50:59;97669.00;;;1.53;100.00
61039;BME280;46919;45.816;3.104;2022-11-06T06:53:26;97668.50;;;1.49;100.00
61039;BME280;46919;45.816;3.104;2022-11-06T06:55:51;97666.16;;;1.54;100.00
61039;BME280;46919;45.816;3.104;2022-11-06T06:58:17;97672.34;;;1.47;100.00
61039;BME280;46919;45.816;3.104;2022-11-06T07:00:42;97667.28;;;1.60;100.00
61039;BME280;46919;45.816;3.104;2022-11-06T07:03:08;97672.38;;;1.70;100.00
61039;BME280;46919;45.816;3.104;2022-11-06T07:05:34;97656.69;;;1.83;100.00
61039;BME280;46919;45.816;3.104;2022-11-06T07:08:00;97654.66;;;1.85;100.00
61039;BME280;46919;45.816;3.104;2022-11-06T07:10:25;97661.31;;;1.89;100.00
61039;BME280;46919;45.816;3.104;2022-11-06T07:12:51;97667.69;;;1.80;100.00
61039;BME280;46919;45.816;3.104;2022-11-06T07:15:16;97667.69;;;1.80;100.00
61039;BME280;46919;45.816;3.104;2022-11-06T07:17:41;97665.69;;;1.82;100.00
61039;BME280;46919;45.816;3.104;2022-11-06T07:20:07;97659.66;;;1.88;100.00
61039;BME280;46919;45.816;3.104;2022-11-06T07:22:33;97655.94;;;1.97;100.00
61039;BME280;46919;45.816;3.104;2022-11-06T07:24:59;97659.34;;;2.14;100.00
61039;BME280;46919;45.816;3.104;2022-11-06T07:27:25;97656.91;;;2.28;100.00
61039;BME280;46919;45.816;3.104;2022-11-06T07:29:50;97665.38;;;2.31;100.00
61039;BME280;46919;45.816;3.104;2022-11-06T07:32:16;97661.81;;;2.39;100.00
61039;BME280;46919;45.816;3.104;2022-11-06T07:34:41;97666.44;;;2.45;100.00
61039;BME280;46919;45.816;3.104;2022-11-06T07:37:07;97661.38;;;2.50;100.00
61039;BME280;46919;45.816;3.104;2022-11-06T07:39:32;97661.44;;;2.65;100.00
61039;BME280;46919;45.816;3.104;2022-11-06T07:41:58;97667.84;;;2.79;100.00
61039;BME280;46919;45.816;3.104;2022-11-06T07:44:23;97662.16;;;2.97;100.00
61039;BME280;46919;45.816;3.104;2022-11-06T07:46:48;97653.06;;;3.21;100.00
61039;BME280;46919;45.816;3.104;2022-11-06T07:49:14;97640.34;;;3.38;100.00
61039;BME280;46919;45.816;3.104;2022-11-06T07:51:41;97627.81;;;3.54;100.00
61039;BME280;46919;45.816;3.104;2022-11-06T07:54:06;97627.16;;;3.67;100.00
61039;BME280;46919;45.816;3.104;2022-11-06T07:56:32;97639.47;;;3.68;100.00
61039;BME280;46919;45.816;3.104;2022-11-06T07:58:57;97644.81;;;3.68;100.00
61039;BME280;46919;45.816;3.104;2022-11-06T08:01:23;97650.34;;;3.81;100.00
61039;BME280;46919;45.816;3.104;2022-11-06T08:03:48;97648.94;;;3.85;100.00
61039;BME280;46919;45.816;3.104;2022-11-06T08:06:13;97645.31;;;3.93;100.00
61039;BME280;46919;45.816;3.104;2022-11-06T08:08:39;97640.66;;;3.95;99.59
61039;BME280;46919;45.816;3.104;2022-11-06T08:11:06;97633.63;;;3.94;100.00
61039;BME280;46919;45.816;3.104;2022-11-06T08:13:33;97630.59;;;4.18;99.77
61039;BME280;46919;45.816;3.104;2022-11-06T08:16:05;97627.16;;;4.46;99.00
61039;BME280;46919;45.816;3.104;2022-11-06T08:18:32;97632.09;;;4.71;97.97
61039;BME280;46919;45.816;3.104;2022-11-06T08:20:58;97626.59;;;4.79;97.65
61039;BME280;46919;45.816;3.104;2022-11-06T08:23:23;97636.03;;;4.75;97.40
61039;BME280;46919;45.816;3.104;2022-11-06T08:25:53;97633.75;;;4.72;97.72
61039;BME280;46919;45.816;3.104;2022-11-06T08:28:19;97640.13;;;4.71;98.01
61039;BME280;46919;45.816;3.104;2022-11-06T08:30:45;97637.69;;;4.76;97.60
61039;BME280;46919;45.816;3.104;2022-11-06T08:33:10;97646.34;;;4.78;97.35
61039;BME280;46919;45.816;3.104;2022-11-06T08:35:36;97640.38;;;4.76;96.82
61039;BME280;46919;45.816;3.104;2022-11-06T08:38:02;97629.47;;;4.78;96.57
61039;BME280;46919;45.816;3.104;2022-11-06T08:40:28;97629.13;;;4.87;96.10
61039;BME280;46919;45.816;3.104;2022-11-06T08:42:58;97616.41;;;4.96;96.14
61039;BME280;46919;45.816;3.104;2022-11-06T08:45:24;97619.34;;;5.01;95.90
61039;BME280;46919;45.816;3.104;2022-11-06T08:47:49;97616.91;;;5.06;95.29
61039;BME280;46919;45.816;3.104;2022-11-06T08:50:15;97619.00;;;5.11;95.22
61039;BME280;46919;45.816;3.104;2022-11-06T08:52:40;97612.06;;;5.23;95.23
61039;BME280;46919;45.816;3.104;2022-11-06T08:55:06;97624.34;;;5.46;94.50
61039;BME280;46919;45.816;3.104;2022-11-06T08:57:31;97616.13;;;5.54;93.53
61039;BME280;46919;45.816;3.104;2022-11-06T08:59:57;97606.91;;;5.70;93.37
61039;BME280;46919;45.816;3.104;2022-11-06T09:02:22;97599.97;;;5.89;92.78
61039;BME280;46919;45.816;3.104;2022-11-06T09:04:48;97594.25;;;6.06;92.43
61039;BME280;46919;45.816;3.104;2022-11-06T09:07:14;97596.75;;;6.14;91.27
61039;BME280;46919;45.816;3.104;2022-11-06T09:09:39;97586.03;;;6.27;91.14
61039;BME280;46919;45.816;3.104;2022-11-06T09:12:05;97579.44;;;6.37;90.62
61039;BME280;46919;45.816;3.104;2022-11-06T09:14:32;97580.66;;;6.41;90.44
61039;BME280;46919;45.816;3.104;2022-11-06T09:16:58;97580.66;;;6.41;90.28
61039;BME280;46919;45.816;3.104;2022-11-06T09:19:23;97576.16;;;6.34;90.26
61039;BME280;46919;45.816;3.104;2022-11-06T09:21:48;97568.69;;;6.43;90.23
61039;BME280;46919;45.816;3.104;2022-11-06T09:24:14;97572.63;;;6.54;90.33
61039;BME280;46919;45.816;3.104;2022-11-06T09:26:39;97566.84;;;6.57;89.37
61039;BME280;46919;45.816;3.104;2022-11-06T09:29:04;97561.50;;;6.50;88.54
61039;BME280;46919;45.816;3.104;2022-11-06T09:31:30;97571.63;;;6.55;88.86
61039;BME280;46919;45.816;3.104;2022-11-06T09:33:55;97559.41;;;6.59;88.30
61039;BME280;46919;45.816;3.104;2022-11-06T09:36:21;97554.66;;;6.61;87.35
61039;BME280;46919;45.816;3.104;2022-11-06T09:38:46;97554.66;;;6.61;87.49
61039;BME280;46919;45.816;3.104;2022-11-06T09:41:38;97561.88;;;6.61;86.54
61039;BME280;46919;45.816;3.104;2022-11-06T09:47:03;97562.50;;;6.63;85.87
61039;BME280;46919;45.816;3.104;2022-11-06T09:49:40;97562.50;;;6.76;86.43
61039;BME280;46919;45.816;3.104;2022-11-06T09:52:11;97564.75;;;6.93;85.88
61039;BME280;46919;45.816;3.104;2022-11-06T09:54:54;97556.41;;;7.21;84.58
61039;BME280;46919;45.816;3.104;2022-11-06T09:57:35;97550.56;;;7.37;83.44
61039;BME280;46919;45.816;3.104;2022-11-06T10:00:06;97557.16;;;7.41;83.95
61039;BME280;46919;45.816;3.104;2022-11-06T10:02:44;97545.38;;;7.42;83.86
61039;BME280;46919;45.816;3.104;2022-11-06T10:05:23;97546.19;;;7.43;83.25
61039;BME280;46919;45.816;3.104;2022-11-06T10:07:52;97540.78;;;7.50;83.28
61039;BME280;46919;45.816;3.104;2022-11-06T10:10:24;97531.44;;;7.59;83.05
61039;BME280;46919;45.816;3.104;2022-11-06T10:13:14;97539.41;;;7.79;82.54
61039;BME280;46919;45.816;3.104;2022-11-06T10:15:50;97524.81;;;8.00;81.68
61039;BME280;46919;45.816;3.104;2022-11-06T10:20:58;97524.25;;;8.16;81.02
61039;BME280;46919;45.816;3.104;2022-11-06T10:23:43;97534.31;;;8.28;81.41
61039;BME280;46919;45.816;3.104;2022-11-06T10:26:14;97530.97;;;8.32;81.37
61039;BME280;46919;45.816;3.104;2022-11-06T10:34:26;97515.16;;;8.43;80.39
61039;BME280;46919;45.816;3.104;2022-11-06T10:37:02;97527.41;;;8.45;80.01
61039;BME280;46919;45.816;3.104;2022-11-06T10:39:32;97519.41;;;8.57;78.14
61039;BME280;46919;45.816;3.104;2022-11-06T10:42:26;97522.34;;;8.56;76.37
61039;BME280;46919;45.816;3.104;2022-11-06T10:44:57;97508.50;;;8.52;76.70
61039;BME280;46919;45.816;3.104;2022-11-06T10:47:35;97503.75;;;8.47;75.85
61039;BME280;46919;45.816;3.104;2022-11-06T10:50:03;97511.63;;;8.49;76.08
61039;BME280;46919;45.816;3.104;2022-11-06T10:52:57;97504.34;;;8.49;76.06
61039;BME280;46919;45.816;3.104;2022-11-06T10:57:58;97491.09;;;8.48;75.01
61039;BME280;46919;45.816;3.104;2022-11-06T11:00:25;97500.84;;;8.49;75.29
61039;BME280;46919;45.816;3.104;2022-11-06T11:02:53;97505.00;;;8.45;75.25
61039;BME280;46919;45.816;3.104;2022-11-06T11:05:21;97507.50;;;8.46;74.77
61039;BME280;46919;45.816;3.104;2022-11-06T11:07:48;97497.53;;;8.47;73.83
61039;BME280;46919;45.816;3.104;2022-11-06T11:10:34;97502.31;;;8.45;72.67
61039;BME280;46919;45.816;3.104;2022-11-06T11:13:03;97493.00;;;8.47;72.56
61039;BME280;46919;45.816;3.104;2022-11-06T11:15:47;97482.16;;;8.54;72.33
61039;BME280;46919;45.816;3.104;2022-11-06T11:20:45;97495.09;;;8.64;72.01
61039;BME280;46919;45.816;3.104;2022-11-06T11:23:15;97483.66;;;8.68;71.77
61039;BME280;46919;45.816;3.104;2022-11-06T11:25:49;97483.28;;;8.65;72.77
61039;BME280;46919;45.816;3.104;2022-11-06T11:28:35;97481.19;;;8.67;73.34
61039;BME280;46919;45.816;3.104;2022-11-06T11:31:11;97478.94;;;8.64;74.14
61039;BME280;46919;45.816;3.104;2022-11-06T11:33:39;97467.13;;;8.65;74.12
61039;BME280;46919;45.816;3.104;2022-11-06T11:36:06;97471.00;;;8.69;73.74
61039;BME280;46919;45.816;3.104;2022-11-06T11:38:35;97461.16;;;8.63;75.10
61039;BME280;46919;45.816;3.104;2022-11-06T11:41:12;97460.69;;;8.66;74.88
61039;BME280;46919;45.816;3.104;2022-11-06T11:43:40;97473.78;;;8.62;75.34
61039;BME280;46919;45.816;3.104;2022-11-06T11:48:51;97470.84;;;8.64;75.05
61039;BME280;46919;45.816;3.104;2022-11-06T11:51:24;97484.63;;;8.56;74.74
61039;BME280;46919;45.816;3.104;2022-11-06T11:56:31;97490.31;;;8.66;75.37
61039;BME280;46919;45.816;3.104;2022-11-06T11:59:01;97488.25;;;8.68;75.32
61039;BME280;46919;45.816;3.104;2022-11-06T12:01:34;97489.66;;;8.70;74.70
61039;BME280;46919;45.816;3.104;2022-11-06T12:04:07;97498.34;;;8.73;75.80
61039;BME280;46919;45.816;3.104;2022-11-06T12:06:34;97497.72;;;8.70;75.58
61039;BME280;46919;45.816;3.104;2022-11-06T12:09:00;97484.03;;;8.72;76.02
61039;BME280;46919;45.816;3.104;2022-11-06T12:11:27;97483.38;;;8.77;75.27
61039;BME280;46919;45.816;3.104;2022-11-06T12:14:16;97492.75;;;8.74;75.21
61039;BME280;46919;45.816;3.104;2022-11-06T12:16:44;97480.91;;;8.75;75.26
61039;BME280;46919;45.816;3.104;2022-11-06T12:19:13;97506.00;;;8.76;75.50
61039;BME280;46919;45.816;3.104;2022-11-06T12:21:39;97500.44;;;8.89;74.33
61039;BME280;46919;45.816;3.104;2022-11-06T12:24:22;97491.09;;;8.92;74.05
61039;BME280;46919;45.816;3.104;2022-11-06T12:26:56;97481.22;;;9.04;73.01
61039;BME280;46919;45.816;3.104;2022-11-06T12:29:32;97478.91;;;9.07;73.11
61039;BME280;46919;45.816;3.104;2022-11-06T12:40:33;97498.69;;;9.20;72.41
61039;BME280;46919;45.816;3.104;2022-11-06T12:46:01;97509.06;;;9.35;72.11
61039;BME280;46919;45.816;3.104;2022-11-06T12:54:06;97506.75;;;9.69;69.55
61039;BME280;46919;45.816;3.104;2022-11-06T13:10:25;97484.16;;;11.06;49.87
61039;BME280;46919;45.816;3.104;2022-11-06T13:15:38;97481.97;;;10.80;50.44
61039;BME280;46919;45.816;3.104;2022-11-06T13:21:19;97457.91;;;11.19;48.21
61039;BME280;46919;45.816;3.104;2022-11-06T13:23:49;97463.66;;;11.92;43.18
61039;BME280;46919;45.816;3.104;2022-11-06T13:26:23;97464.22;;;11.94;43.54
61039;BME280;46919;45.816;3.104;2022-11-06T13:28:56;97475.09;;;11.82;44.10
61039;BME280;46919;45.816;3.104;2022-11-06T13:31:45;97459.19;;;11.86;44.20
61039;BME280;46919;45.816;3.104;2022-11-06T13:34:25;97452.19;;;12.02;43.53
61039;BME280;46919;45.816;3.104;2022-11-06T13:36:53;97466.03;;;12.05;44.17
61039;BME280;46919;45.816;3.104;2022-11-06T13:39:28;97465.41;;;12.15;43.83
61039;BME280;46919;45.816;3.104;2022-11-06T13:41:56;97449.16;;;12.32;42.12
61039;BME280;46919;45.816;3.104;2022-11-06T13:44:23;97451.47;;;12.40;43.24
61039;BME280;46919;45.816;3.104;2022-11-06T13:47:00;97444.78;;;12.48;43.00
61039;BME280;46919;45.816;3.104;2022-11-06T13:52:20;97439.19;;;12.94;43.85
61039;BME280;46919;45.816;3.104;2022-11-06T14:00:14;97438.34;;;14.46;39.88
61039;BME280;46919;45.816;3.104;2022-11-06T14:05:51;97465.72;;;15.15;38.73
61039;BME280;46919;45.816;3.104;2022-11-06T14:10:57;97476.34;;;16.00;38.10
61039;BME280;46919;45.816;3.104;2022-11-06T14:13:26;97479.94;;;16.26;38.63
61039;BME280;46919;45.816;3.104;2022-11-06T14:18:42;97484.56;;;16.36;38.58
61039;BME280;46919;45.816;3.104;2022-11-06T14:26:41;97497.13;;;16.89;34.74
61039;BME280;46919;45.816;3.104;2022-11-06T14:34:43;97534.75;;;17.12;35.88
61039;BME280;46919;45.816;3.104;2022-11-06T14:42:39;97548.66;;;16.75;36.73
61039;BME280;46919;45.816;3.104;2022-11-06T14:49:59;97578.91;;;16.22;38.31
61039;BME280;46919;45.816;3.104;2022-11-06T14:52:26;97581.78;;;15.84;39.42
61039;BME280;46919;45.816;3.104;2022-11-06T14:55:00;97597.16;;;15.58;40.20
61039;BME280;46919;45.816;3.104;2022-11-06T14:57:38;97601.47;;;15.49;40.51
61039;BME280;46919;45.816;3.104;2022-11-06T15:00:07;97609.75;;;15.69;40.99
61039;BME280;46919;45.816;3.104;2022-11-06T15:02:36;97608.38;;;15.67;41.04
61039;BME280;46919;45.816;3.104;2022-11-06T15:05:04;97612.63;;;15.47;41.79
61039;BME280;46919;45.816;3.104;2022-11-06T15:07:53;97604.63;;;15.30;42.47
61039;BME280;46919;45.816;3.104;2022-11-06T15:15:38;97582.78;;;14.82;43.82
61039;BME280;46919;45.816;3.104;2022-11-06T15:18:09;97589.88;;;14.83;43.78
61039;BME280;46919;45.816;3.104;2022-11-06T15:20:36;97586.06;;;14.84;44.12
61039;BME280;46919;45.816;3.104;2022-11-06T15:23:18;97590.78;;;14.67;44.50
61039;BME280;46919;45.816;3.104;2022-11-06T15:26:01;97585.66;;;14.65;45.08
61039;BME280;46919;45.816;3.104;2022-11-06T15:28:32;97595.00;;;14.80;44.93
61039;BME280;46919;45.816;3.104;2022-11-06T15:31:10;97594.69;;;14.76;44.51
61039;BME280;46919;45.816;3.104;2022-11-06T15:36:25;97604.13;;;14.68;44.67
61039;BME280;46919;45.816;3.104;2022-11-06T15:38:52;97607.00;;;14.57;45.54
61039;BME280;46919;45.816;3.104;2022-11-06T15:41:21;97611.47;;;14.41;45.78